TimeEST,TemperatureF,Dew PointF,Humidity,Sea Level PressureIn,VisibilityMPH,Wind Direction,Wind SpeedMPH,Gust SpeedMPH,PrecipitationIn,Events,Conditions,WindDirDegrees,DateUTC
12:53 AM,72.0,71.1,97,29.97,9.0,South,6.9,-,N/A,,Clear,190,2013-02-14 05:53:00
1:53 AM,72.0,70.0,93,29.96,10.0,SW,3.5,-,N/A,,Clear,220,2013-02-14 06:53:00
2:53 AM,72.0,70.0,93,29.94,10.0,South,4.6,-,N/A,,Mostly Cloudy,190,2013-02-14 07:53:00
3:53 AM,73.0,70.0,90,29.94,10.0,SSW,3.5,-,N/A,,Mostly Cloudy,210,2013-02-14 08:53:00
4:53 AM,72.0,70.0,93,29.94,10.0,SW,3.5,-,N/A,,Mostly Cloudy,220,2013-02-14 09:53:00
5:53 AM,71.1,70.0,96,29.95,10.0,NW,3.5,-,N/A,,Mostly Cloudy,310,2013-02-14 10:53:00
6:14 AM,71.6,69.8,94,29.96,10.0,Calm,Calm,-,N/A,,Mostly Cloudy,0,2013-02-14 11:14:00
6:53 AM,70.0,70.0,100,29.97,8.0,North,3.5,-,N/A,,Mostly Cloudy,10,2013-02-14 11:53:00
7:44 AM,71.6,69.8,94,29.97,6.0,North,4.6,-,N/A,,Scattered Clouds,350,2013-02-14 12:44:00
7:53 AM,71.1,71.1,100,29.98,5.0,North,3.5,-,N/A,,Mostly Cloudy,350,2013-02-14 12:53:00
8:12 AM,71.6,69.8,94,29.98,6.0,NNE,4.6,-,N/A,,Mostly Cloudy,20,2013-02-14 13:12:00
8:23 AM,71.6,71.6,100,29.98,6.0,NNE,3.5,-,N/A,,Scattered Clouds,20,2013-02-14 13:23:00
8:53 AM,73.9,70.0,87,29.99,8.0,North,5.8,-,N/A,,Scattered Clouds,350,2013-02-14 13:53:00
9:48 AM,75.2,69.8,83,30.01,10.0,North,6.9,-,N/A,,Overcast,360,2013-02-14 14:48:00
9:53 AM,75.0,69.1,82,30.01,10.0,NW,5.8,-,N/A,,Overcast,310,2013-02-14 14:53:00
10:23 AM,75.2,68.0,78,30.01,10.0,NNW,8.1,-,N/A,,Mostly Cloudy,330,2013-02-14 15:23:00
10:53 AM,75.9,69.1,79,30.01,10.0,North,4.6,-,N/A,,Mostly Cloudy,350,2013-02-14 15:53:00
11:53 AM,78.1,69.1,74,29.99,10.0,NE,9.2,-,N/A,,Mostly Cloudy,50,2013-02-14 16:53:00
12:53 PM,78.1,70.0,76,29.96,10.0,ENE,6.9,-,N/A,,Mostly Cloudy,60,2013-02-14 17:53:00
1:53 PM,79.0,71.1,77,29.92,10.0,ENE,9.2,-,N/A,,Mostly Cloudy,60,2013-02-14 18:53:00
2:53 PM,77.0,70.0,79,29.90,10.0,East,9.2,-,N/A,,Mostly Cloudy,90,2013-02-14 19:53:00
3:12 PM,75.2,73.4,94,29.89,1.2,South,5.8,16.1,0.17,Rain,Light Rain,180,2013-02-14 20:12:00
3:15 PM,73.4,73.4,100,29.89,0.5,Variable,4.6,16.1,0.33,Fog-Rain,Heavy Rain,0,2013-02-14 20:15:00
3:25 PM,73.4,71.6,94,29.87,1.0,East,6.9,-,0.43,Rain,Light Rain,80,2013-02-14 20:25:00
3:32 PM,75.2,73.4,94,29.87,7.0,SE,11.5,-,0.43,Rain,Light Rain,130,2013-02-14 20:32:00
3:53 PM,77.0,75.0,94,29.86,8.0,SSE,6.9,-,0.43,,Mostly Cloudy,160,2013-02-14 20:53:00
4:53 PM,75.9,73.9,94,29.89,9.0,NW,10.4,-,0.00,Rain,Light Rain,320,2013-02-14 21:53:00
5:53 PM,80.1,69.1,69,29.91,10.0,SW,15.0,24.2,N/A,,Overcast,230,2013-02-14 22:53:00
6:29 PM,71.6,69.8,94,29.94,2.0,NW,18.4,33.4,0.12,Rain,Heavy Rain,310,2013-02-14 23:29:00
6:42 PM,69.8,68.0,94,29.95,10.0,NNW,23.0,32.2,0.12,Rain,Light Rain,330,2013-02-14 23:42:00
6:53 PM,68.0,68.0,100,29.95,10.0,NNW,26.5,33.4,0.12,,Mostly Cloudy,340,2013-02-14 23:53:00
7:29 PM,64.4,64.4,100,29.96,5.0,North,13.8,21.9,0.05,Rain,Rain,360,2013-02-15 00:29:00
7:38 PM,64.4,64.4,100,29.96,9.0,North,17.3,23.0,0.05,Rain,Light Rain,360,2013-02-15 00:38:00
7:46 PM,64.4,64.4,100,29.96,8.0,North,13.8,23.0,0.06,Rain,Light Rain,350,2013-02-15 00:46:00
7:53 PM,64.9,64.0,97,29.97,7.0,North,15.0,-,0.06,Rain,Light Rain,360,2013-02-15 00:53:00
8:20 PM,64.4,64.4,100,29.97,10.0,North,13.8,-,0.01,,Overcast,350,2013-02-15 01:20:00
8:53 PM,64.0,64.0,100,29.99,10.0,North,13.8,20.7,0.06,,Overcast,350,2013-02-15 01:53:00
9:11 PM,64.4,62.6,94,30.00,10.0,North,13.8,-,0.02,Rain,Light Rain,350,2013-02-15 02:11:00
9:28 PM,64.4,64.4,100,30.01,10.0,NNW,11.5,-,0.02,Rain,Light Rain,330,2013-02-15 02:28:00
9:53 PM,64.0,64.0,100,30.01,5.0,NNW,12.7,-,0.08,Rain,Light Rain,340,2013-02-15 02:53:00
10:16 PM,62.6,62.6,100,30.01,10.0,NNW,11.5,-,0.00,Rain,Light Rain,340,2013-02-15 03:16:00
10:53 PM,64.0,63.0,96,30.02,10.0,North,10.4,-,0.01,,Overcast,360,2013-02-15 03:53:00
11:08 PM,64.4,62.6,94,30.02,8.0,NNW,10.4,-,0.00,Rain,Light Rain,340,2013-02-15 04:08:00
11:15 PM,64.4,64.4,100,30.01,4.0,North,8.1,-,0.03,Rain,Heavy Rain,360,2013-02-15 04:15:00
11:53 PM,64.0,64.0,100,30.02,7.0,NW,4.6,-,0.04,Rain,Light Rain,320,2013-02-15 04:53:00